IGO163L VAAH-VABB
Flight info
| Callsign | IGO163L |
|---|---|
| Flight time | N/A |
| Altitude | 35000 |
| Route | BVR1A/23 BVR R458 BOFIN POKON2A |
| Aircraft | A21N/M-SDE2E3FGHIRWXY/LB1 |
Departure
| Time | 2026-04-26 11:36 |
|---|---|
| Airport | Sardar Vallabh Patel International Airport (VAAH) |
Arrival
| Time | N/A |
|---|---|
| Airport | Chhatrapati Shivaji Maharaj International Airport (VABB) |
| Time | Latitude | Longitude | Altitude | Speed | Heading |
|---|---|---|---|---|---|
| 2026-04-26 11:02 | 23.07132 | 72.61911 | 196 ft | 0 kts | 46° |
| 2026-04-26 11:22 | 23.07122 | 72.61899 | 210 ft | 2 kts | 49° |
| 2026-04-26 11:22 | 23.07111 | 72.61886 | 210 ft | 2 kts | 51° |
| 2026-04-26 11:22 | 23.07101 | 72.61872 | 205 ft | 2 kts | 61° |
| 2026-04-26 11:23 | 23.07093 | 72.61856 | 212 ft | 2 kts | 104° |
| 2026-04-26 11:23 | 23.07100 | 72.61840 | 204 ft | 2 kts | 133° |
| 2026-04-26 11:23 | 23.07104 | 72.61834 | 202 ft | 0 kts | 134° |
| 2026-04-26 11:25 | 23.07104 | 72.61835 | 203 ft | 1 kts | 134° |
| 2026-04-26 11:26 | 23.07068 | 72.61871 | 200 ft | 14 kts | 137° |
| 2026-04-26 11:26 | 23.07002 | 72.61944 | 202 ft | 13 kts | 131° |
| 2026-04-26 11:26 | 23.06942 | 72.62010 | 200 ft | 11 kts | 135° |
| 2026-04-26 11:26 | 23.06895 | 72.62064 | 195 ft | 9 kts | 132° |
| 2026-04-26 11:27 | 23.06891 | 72.62093 | 201 ft | 1 kts | 83° |
| 2026-04-26 11:27 | 23.06893 | 72.62100 | 200 ft | 1 kts | 71° |
| 2026-04-26 11:27 | 23.06903 | 72.62131 | 198 ft | 1 kts | 76° |
| 2026-04-26 11:27 | 23.06890 | 72.62172 | 197 ft | 0 kts | 126° |
| 2026-04-26 11:29 | 23.06877 | 72.62189 | 201 ft | 8 kts | 132° |
| 2026-04-26 11:30 | 23.06845 | 72.62260 | 195 ft | 10 kts | 82° |
| 2026-04-26 11:30 | 23.06867 | 72.62290 | 198 ft | 6 kts | 32° |
| 2026-04-26 11:30 | 23.06933 | 72.62352 | 193 ft | 14 kts | 46° |
| 2026-04-26 11:30 | 23.07028 | 72.62457 | 201 ft | 24 kts | 45° |
| 2026-04-26 11:31 | 23.07160 | 72.62598 | 193 ft | 28 kts | 45° |
| 2026-04-26 11:31 | 23.07306 | 72.62751 | 195 ft | 30 kts | 44° |
| 2026-04-26 11:31 | 23.07450 | 72.62906 | 206 ft | 27 kts | 44° |
| 2026-04-26 11:31 | 23.07589 | 72.63051 | 197 ft | 29 kts | 44° |
| 2026-04-26 11:32 | 23.07737 | 72.63206 | 207 ft | 30 kts | 44° |
| 2026-04-26 11:32 | 23.07874 | 72.63354 | 199 ft | 25 kts | 45° |
| 2026-04-26 11:32 | 23.07984 | 72.63512 | 192 ft | 28 kts | 43° |
| 2026-04-26 11:32 | 23.08111 | 72.63646 | 189 ft | 24 kts | 46° |
| 2026-04-26 11:33 | 23.08193 | 72.63735 | 194 ft | 26 kts | 44° |
| 2026-04-26 11:33 | 23.08316 | 72.63866 | 204 ft | 21 kts | 45° |
| 2026-04-26 11:33 | 23.08466 | 72.64032 | 202 ft | 25 kts | 44° |
| 2026-04-26 11:33 | 23.08560 | 72.64127 | 199 ft | 15 kts | 44° |
| 2026-04-26 11:34 | 23.08607 | 72.64184 | 205 ft | 14 kts | 61° |
| 2026-04-26 11:34 | 23.08594 | 72.64234 | 208 ft | 0 kts | 139° |
| 2026-04-26 11:35 | 23.08593 | 72.64235 | 208 ft | 1 kts | 140° |
| 2026-04-26 11:35 | 23.08574 | 72.64253 | 196 ft | 7 kts | 138° |
| 2026-04-26 11:35 | 23.08517 | 72.64289 | 203 ft | 9 kts | 183° |
| 2026-04-26 11:35 | 23.08493 | 72.64268 | 200 ft | 0 kts | 226° |
| 2026-04-26 11:36 | 23.08360 | 72.64129 | 201 ft | 68 kts | 224° |
| 2026-04-26 11:36 | 23.07843 | 72.63575 | 193 ft | 137 kts | 225° |
| 2026-04-26 11:36 | 23.07045 | 72.62720 | 324 ft | 178 kts | 224° |
| 2026-04-26 11:36 | 23.06133 | 72.61754 | 972 ft | 183 kts | 223° |
| 2026-04-26 11:37 | 23.05189 | 72.60843 | 1968 ft | 175 kts | 223° |
| 2026-04-26 11:37 | 23.04291 | 72.59960 | 2483 ft | 185 kts | 225° |
| 2026-04-26 11:37 | 23.03307 | 72.58938 | 2913 ft | 204 kts | 226° |
| 2026-04-26 11:37 | 23.02236 | 72.57787 | 3269 ft | 229 kts | 226° |
| 2026-04-26 11:38 | 23.01054 | 72.56496 | 3712 ft | 251 kts | 226° |
| 2026-04-26 11:38 | 22.99775 | 72.55104 | 4318 ft | 266 kts | 226° |
| 2026-04-26 11:38 | 22.98450 | 72.53665 | 5164 ft | 271 kts | 226° |
| 2026-04-26 11:38 | 22.97111 | 72.52213 | 6109 ft | 273 kts | 226° |
| 2026-04-26 11:39 | 22.95753 | 72.50739 | 6963 ft | 277 kts | 226° |
| 2026-04-26 11:39 | 22.94385 | 72.49278 | 7617 ft | 281 kts | 222° |
| 2026-04-26 11:39 | 22.92745 | 72.48100 | 8194 ft | 286 kts | 206° |
| 2026-04-26 11:39 | 22.90845 | 72.47442 | 8785 ft | 290 kts | 194° |
| 2026-04-26 11:40 | 22.88862 | 72.46974 | 9381 ft | 292 kts | 194° |
| 2026-04-26 11:40 | 22.86864 | 72.46488 | 9950 ft | 298 kts | 194° |
| 2026-04-26 11:40 | 22.84796 | 72.45975 | 10515 ft | 312 kts | 194° |
| 2026-04-26 11:40 | 22.82633 | 72.45434 | 11091 ft | 325 kts | 194° |
| 2026-04-26 11:41 | 22.80381 | 72.44871 | 11665 ft | 337 kts | 194° |
| 2026-04-26 11:42 | 22.63458 | 72.40671 | 13713 ft | 364 kts | 193° |
| 2026-04-26 11:43 | 22.60977 | 72.40059 | 14084 ft | 368 kts | 193° |
| 2026-04-26 11:43 | 22.58478 | 72.39440 | 14858 ft | 369 kts | 193° |
| 2026-04-26 11:43 | 22.55957 | 72.38817 | 15523 ft | 373 kts | 193° |
| 2026-04-26 11:43 | 22.53409 | 72.38187 | 16180 ft | 378 kts | 193° |
| 2026-04-26 11:44 | 22.50830 | 72.37549 | 16807 ft | 382 kts | 193° |
| 2026-04-26 11:44 | 22.48226 | 72.36907 | 17437 ft | 386 kts | 192° |
| 2026-04-26 11:44 | 22.45589 | 72.36257 | 18034 ft | 391 kts | 192° |
| 2026-04-26 11:44 | 22.42913 | 72.35597 | 18590 ft | 395 kts | 192° |
| 2026-04-26 11:45 | 22.40225 | 72.34936 | 19120 ft | 399 kts | 192° |
| 2026-04-26 11:45 | 22.37494 | 72.34264 | 19639 ft | 404 kts | 192° |
| 2026-04-26 11:45 | 22.34739 | 72.33584 | 20174 ft | 408 kts | 192° |
| 2026-04-26 11:45 | 22.31953 | 72.32898 | 20684 ft | 412 kts | 192° |
| 2026-04-26 11:46 | 22.29577 | 72.32314 | 21136 ft | 416 kts | 192° |
| 2026-04-26 11:46 | 22.26601 | 72.31582 | 21728 ft | 419 kts | 192° |
| 2026-04-26 11:46 | 22.23735 | 72.30879 | 22258 ft | 423 kts | 192° |
| 2026-04-26 11:46 | 22.20853 | 72.30172 | 22791 ft | 427 kts | 192° |
| 2026-04-26 11:47 | 22.17943 | 72.29458 | 23340 ft | 430 kts | 192° |
| 2026-04-26 11:47 | 22.15048 | 72.28748 | 23788 ft | 433 kts | 192° |
| 2026-04-26 11:47 | 22.12102 | 72.28025 | 24280 ft | 435 kts | 192° |
| 2026-04-26 11:47 | 22.09133 | 72.27297 | 24751 ft | 437 kts | 192° |
| 2026-04-26 11:48 | 22.06153 | 72.26567 | 25218 ft | 440 kts | 192° |
| 2026-04-26 11:48 | 22.03151 | 72.25832 | 25673 ft | 442 kts | 192° |
| 2026-04-26 11:48 | 22.00151 | 72.25098 | 26112 ft | 445 kts | 192° |
| 2026-04-26 11:48 | 21.97111 | 72.24354 | 26551 ft | 447 kts | 192° |
| 2026-04-26 11:49 | 21.94065 | 72.23610 | 26984 ft | 449 kts | 192° |
| 2026-04-26 11:49 | 21.91008 | 72.22862 | 27398 ft | 452 kts | 192° |
| 2026-04-26 11:49 | 21.87932 | 72.22111 | 27801 ft | 455 kts | 192° |
| 2026-04-26 11:49 | 21.84835 | 72.21354 | 28214 ft | 457 kts | 192° |
| 2026-04-26 11:50 | 21.81754 | 72.20602 | 28609 ft | 459 kts | 192° |
| 2026-04-26 11:50 | 21.78616 | 72.19881 | 28983 ft | 461 kts | 187° |
| 2026-04-26 11:50 | 21.75415 | 72.19587 | 29342 ft | 462 kts | 179° |
| 2026-04-26 11:50 | 21.72201 | 72.19814 | 29713 ft | 463 kts | 170° |
| 2026-04-26 11:51 | 21.69041 | 72.20534 | 30052 ft | 464 kts | 165° |
| 2026-04-26 11:51 | 21.65901 | 72.21372 | 30341 ft | 467 kts | 165° |
| 2026-04-26 11:51 | 21.62726 | 72.22208 | 30664 ft | 469 kts | 165° |
| 2026-04-26 11:51 | 21.59554 | 72.23037 | 31031 ft | 470 kts | 166° |
| 2026-04-26 11:52 | 21.56421 | 72.23856 | 31454 ft | 469 kts | 166° |
| 2026-04-26 11:52 | 21.54274 | 72.24418 | 31735 ft | 468 kts | 166° |
| 2026-04-26 11:52 | 21.50086 | 72.25514 | 32317 ft | 466 kts | 167° |
| 2026-04-26 11:52 | 21.46927 | 72.26341 | 32745 ft | 465 kts | 167° |
| 2026-04-26 11:53 | 21.43791 | 72.27158 | 33167 ft | 463 kts | 168° |
| 2026-04-26 11:53 | 21.40686 | 72.27968 | 33584 ft | 462 kts | 168° |
| 2026-04-26 11:53 | 21.37542 | 72.28787 | 33951 ft | 460 kts | 168° |
| 2026-04-26 11:54 | 21.31356 | 72.30395 | 34612 ft | 458 kts | 169° |
| 2026-04-26 11:54 | 21.26063 | 72.31771 | 34739 ft | 454 kts | 169° |
| 2026-04-26 11:55 | 21.19911 | 72.33365 | 34738 ft | 453 kts | 169° |
| 2026-04-26 11:55 | 21.13776 | 72.34953 | 34737 ft | 452 kts | 169° |
| 2026-04-26 11:56 | 21.07656 | 72.36536 | 34737 ft | 451 kts | 170° |
| 2026-04-26 11:56 | 21.01545 | 72.38117 | 34740 ft | 450 kts | 170° |
| 2026-04-26 11:57 | 20.95466 | 72.39689 | 34742 ft | 450 kts | 171° |
| 2026-04-26 11:57 | 20.89401 | 72.41250 | 34742 ft | 449 kts | 171° |
| 2026-04-26 11:58 | 20.83360 | 72.42799 | 34754 ft | 447 kts | 171° |
| 2026-04-26 11:58 | 20.77274 | 72.44354 | 34752 ft | 446 kts | 172° |
| 2026-04-26 11:59 | 20.71184 | 72.44939 | 34613 ft | 433 kts | 189° |
| 2026-04-26 11:59 | 20.68260 | 72.44478 | 34382 ft | 426 kts | 198° |
| 2026-04-26 11:59 | 20.65446 | 72.43551 | 34155 ft | 420 kts | 205° |
| 2026-04-26 11:59 | 20.62725 | 72.42414 | 33938 ft | 420 kts | 205° |
| 2026-04-26 12:00 | 20.59995 | 72.41292 | 33697 ft | 420 kts | 205° |
| 2026-04-26 12:00 | 20.57259 | 72.40177 | 33432 ft | 420 kts | 205° |
| 2026-04-26 12:00 | 20.54517 | 72.39060 | 33201 ft | 422 kts | 204° |
| 2026-04-26 12:00 | 20.51771 | 72.37943 | 32935 ft | 423 kts | 204° |
| 2026-04-26 12:01 | 20.49045 | 72.36833 | 32675 ft | 424 kts | 204° |
| 2026-04-26 12:01 | 20.46281 | 72.35707 | 32437 ft | 425 kts | 204° |
| 2026-04-26 12:01 | 20.43515 | 72.34581 | 32185 ft | 426 kts | 204° |
| 2026-04-26 12:01 | 20.40744 | 72.33454 | 31939 ft | 427 kts | 204° |
| 2026-04-26 12:02 | 20.37959 | 72.32321 | 31692 ft | 428 kts | 204° |
| 2026-04-26 12:02 | 20.36109 | 72.31569 | 31531 ft | 429 kts | 204° |
| 2026-04-26 12:02 | 20.32456 | 72.30084 | 31217 ft | 430 kts | 204° |